createdAt,value
2022-08-01T00:00:02.353Z,2.88
2022-08-01T00:02:50.823Z,3.47
2022-08-01T00:05:37.030Z,8.88
2022-08-01T00:08:23.199Z,9.25
2022-08-01T00:11:10.307Z,8.10
2022-08-01T00:13:57.061Z,10.85
2022-08-01T00:16:43.188Z,7.45
2022-08-01T00:19:28.962Z,5.63
2022-08-01T00:22:18.287Z,4.88
2022-08-01T00:25:05.717Z,3.83
2022-08-01T00:27:51.527Z,3.30
2022-08-01T00:30:37.718Z,2.85
2022-08-01T00:33:23.477Z,2.85
2022-08-01T00:36:09.268Z,3.00
2022-08-01T00:38:55.393Z,3.30
2022-08-01T00:41:41.319Z,3.50
2022-08-01T00:44:28.276Z,10.20
2022-08-01T00:47:14.350Z,17.17
2022-08-01T00:50:00.774Z,20.52
2022-08-01T00:52:51.286Z,20.73
2022-08-01T00:55:37.721Z,16.40
2022-08-01T00:58:24.409Z,12.02
2022-08-01T01:01:10.738Z,9.93
2022-08-01T01:03:59.782Z,6.55
2022-08-01T01:07:26.985Z,5.70
2022-08-01T01:10:21.827Z,5.18
2022-08-01T01:13:50.043Z,8.30
2022-08-01T01:16:38.307Z,9.48
2022-08-01T01:19:26.210Z,8.75
2022-08-01T01:22:24.173Z,7.53
2022-08-01T01:25:38.202Z,6.57
2022-08-01T01:28:51.959Z,4.50
2022-08-01T01:31:45.028Z,4.43
2022-08-01T01:34:35.614Z,6.90
2022-08-01T01:37:23.438Z,6.35
2022-08-01T01:40:11.219Z,7.88
2022-08-01T01:42:58.065Z,5.10
2022-08-01T01:45:46.246Z,3.67
2022-08-01T01:48:32.458Z,2.90
2022-08-01T01:51:20.009Z,3.15
2022-08-01T01:54:07.975Z,3.10
2022-08-01T01:56:54.211Z,2.95
2022-08-01T01:59:40.932Z,3.35
2022-08-01T02:02:28.088Z,3.80
2022-08-01T02:05:14.921Z,6.20
2022-08-01T02:08:00.772Z,9.88
2022-08-01T02:11:05.671Z,12.60
2022-08-01T02:13:59.641Z,7.25
2022-08-01T02:16:48.884Z,4.93
2022-08-01T02:19:38.022Z,6.05
2022-08-01T02:22:34.378Z,8.73
2022-08-01T02:25:39.142Z,6.60
2022-08-01T02:31:41.636Z,3.80
2022-08-01T02:34:29.510Z,3.65
2022-08-01T02:37:15.871Z,3.35
2022-08-01T02:40:02.442Z,3.53
2022-08-01T02:42:52.504Z,3.30
2022-08-01T02:45:42.389Z,3.40
2022-08-01T02:48:29.172Z,3.08
2022-08-01T02:51:27.637Z,3.00
2022-08-01T02:54:19.785Z,2.83
2022-08-01T02:57:07.333Z,2.53
2022-08-01T02:59:54.920Z,2.65
2022-08-01T03:02:42.851Z,2.88
2022-08-01T03:05:28.860Z,3.63
2022-08-01T03:08:16.678Z,6.03
2022-08-01T03:11:03.228Z,6.07
2022-08-01T03:13:49.720Z,6.20
2022-08-01T03:16:37.755Z,5.95
2022-08-01T03:19:25.981Z,4.85
2022-08-01T03:22:12.965Z,6.47
2022-08-01T03:25:00.589Z,4.43
2022-08-01T03:27:49.634Z,3.03
2022-08-01T03:30:37.420Z,4.00
2022-08-01T03:33:23.502Z,4.40
2022-08-01T03:36:11.758Z,9.73
2022-08-01T03:38:59.758Z,3.13
2022-08-01T03:41:59.322Z,3.45
2022-08-01T03:44:51.650Z,5.35
2022-08-01T03:47:43.533Z,4.40
2022-08-01T03:50:34.924Z,4.45
2022-08-01T03:53:24.213Z,4.40
2022-08-01T03:56:11.537Z,4.03
2022-08-01T03:58:58.301Z,4.00
2022-08-01T04:01:45.830Z,3.38
2022-08-01T04:04:31.955Z,6.75
2022-08-01T04:07:25.832Z,5.35
2022-08-01T04:10:12.435Z,4.07
2022-08-01T04:12:58.073Z,2.70
2022-08-01T04:15:43.757Z,2.80
2022-08-01T04:18:29.553Z,3.35
2022-08-01T04:21:21.298Z,3.88
2022-08-01T04:24:14.349Z,3.97
2022-08-01T04:27:01.572Z,4.15
2022-08-01T04:29:48.045Z,2.38
2022-08-01T04:32:40.040Z,3.17
2022-08-01T04:36:02.186Z,3.10
2022-08-01T04:38:33.996Z,4.15
2022-08-01T04:41:20.415Z,4.60
2022-08-01T04:44:06.537Z,4.40
2022-08-01T04:46:55.575Z,3.50
2022-08-01T04:49:48.895Z,3.10
2022-08-01T04:55:22.110Z,2.97
2022-08-01T04:58:08.835Z,3.95
2022-08-01T05:00:54.899Z,4.45
2022-08-01T05:03:41.035Z,4.10
2022-08-01T05:06:27.201Z,4.93
2022-08-01T05:09:13.217Z,4.47
2022-08-01T05:12:02.943Z,5.28
2022-08-01T05:14:49.295Z,4.80
2022-08-01T05:17:35.326Z,3.88
2022-08-01T05:20:21.621Z,4.00
2022-08-01T05:23:10.207Z,3.65
2022-08-01T05:25:58.924Z,3.42
2022-08-01T05:28:45.228Z,3.90
2022-08-01T05:31:31.036Z,2.50
2022-08-01T05:34:17.304Z,2.50
2022-08-01T05:37:03.807Z,2.50
2022-08-01T05:39:49.740Z,2.10
2022-08-01T05:42:35.830Z,2.50
2022-08-01T05:45:22.083Z,2.30
2022-08-01T05:48:08.244Z,3.10
2022-08-01T05:50:58.615Z,1.80
2022-08-01T05:53:44.846Z,2.22
2022-08-01T05:56:32.403Z,2.35
2022-08-01T05:59:19.004Z,2.50
2022-08-01T06:02:05.704Z,3.05
2022-08-01T06:04:51.982Z,3.05
2022-08-01T06:07:39.567Z,3.30
2022-08-01T06:10:25.454Z,2.50
2022-08-01T06:13:11.616Z,2.40
2022-08-01T06:15:57.542Z,2.80
2022-08-01T06:18:43.350Z,2.28
2022-08-01T06:21:29.139Z,2.05
2022-08-01T06:24:14.914Z,2.45
2022-08-01T06:27:01.833Z,2.05
2022-08-01T06:29:51.370Z,2.08
2022-08-01T06:32:40.083Z,1.92
2022-08-01T06:35:25.774Z,2.40
2022-08-01T06:38:11.698Z,1.80
2022-08-01T06:41:03.598Z,1.92
2022-08-01T06:43:49.473Z,2.00
2022-08-01T06:46:35.980Z,1.70
2022-08-01T06:49:22.315Z,2.00
2022-08-01T06:52:09.097Z,2.30
2022-08-01T06:54:55.238Z,2.40
2022-08-01T06:57:52.212Z,1.95
2022-08-01T07:00:38.113Z,1.92
2022-08-01T07:03:24.680Z,2.10
2022-08-01T07:06:10.799Z,18.08
2022-08-01T07:09:05.784Z,38.83
2022-08-01T07:11:56.829Z,49.97
2022-08-01T07:14:42.739Z,29.10
2022-08-01T07:17:28.675Z,12.73
2022-08-01T07:20:16.305Z,6.43
2022-08-01T07:23:02.654Z,4.47
2022-08-01T07:25:52.655Z,3.35
2022-08-01T07:28:43.970Z,10.82
2022-08-01T07:31:32.387Z,59.10
2022-08-01T07:34:18.666Z,33.88
2022-08-01T07:37:05.930Z,11.18
2022-08-01T07:39:52.764Z,4.80
2022-08-01T07:42:38.793Z,4.30
2022-08-01T07:45:24.778Z,3.58
2022-08-01T07:48:10.838Z,3.05
2022-08-01T07:50:57.324Z,6.78
2022-08-01T07:53:45.275Z,5.00
2022-08-01T07:56:31.872Z,3.92
2022-08-01T07:59:26.170Z,2.40
2022-08-01T08:02:12.552Z,2.40
2022-08-01T08:04:58.804Z,2.40
2022-08-01T08:07:44.865Z,2.05
2022-08-01T08:10:30.614Z,2.30
2022-08-01T08:13:16.566Z,14.63
2022-08-01T08:16:04.940Z,13.73
2022-08-01T08:18:50.929Z,2.78
2022-08-01T08:21:37.562Z,2.88
2022-08-01T08:24:28.201Z,3.10
2022-08-01T08:27:16.280Z,2.60
2022-08-01T08:30:02.934Z,2.10
2022-08-01T08:32:49.037Z,2.30
2022-08-01T08:35:40.408Z,1.90
2022-08-01T08:38:47.345Z,2.40
2022-08-01T08:41:36.875Z,18.63
2022-08-01T08:44:24.065Z,16.45
2022-08-01T08:47:17.362Z,15.23
2022-08-01T08:50:08.684Z,2.45
2022-08-01T08:52:56.414Z,2.70
2022-08-01T08:55:55.745Z,2.35
2022-08-01T08:58:45.525Z,1.77
2022-08-01T09:01:36.257Z,2.15
2022-08-01T09:04:26.365Z,1.80
2022-08-01T09:07:12.861Z,2.20
2022-08-01T09:09:58.807Z,1.77
2022-08-01T09:13:23.599Z,1.98
2022-08-01T09:19:38.923Z,1.40
2022-08-01T09:22:26.760Z,1.83
2022-08-01T09:25:12.703Z,1.60
2022-08-01T09:28:30.333Z,1.73
2022-08-01T09:31:20.886Z,1.88
2022-08-01T09:34:09.210Z,1.60
2022-08-01T09:37:03.602Z,1.80
2022-08-01T09:39:56.240Z,1.70
2022-08-01T09:42:52.645Z,1.70
2022-08-01T09:45:41.738Z,1.45
2022-08-01T09:48:30.331Z,1.50
2022-08-01T09:51:58.592Z,1.50
2022-08-01T09:54:37.846Z,1.30
2022-08-01T09:57:26.079Z,1.67
2022-08-01T10:00:45.212Z,2.08
2022-08-01T10:03:32.122Z,3.78
2022-08-01T10:06:24.723Z,2.20
2022-08-01T10:09:14.180Z,7.50
2022-08-01T10:12:01.143Z,2.15
2022-08-01T10:14:50.669Z,2.60
2022-08-01T10:17:50.026Z,3.67
2022-08-01T10:20:38.970Z,1.83
2022-08-01T10:23:39.983Z,1.85
2022-08-01T10:26:28.365Z,8.55
2022-08-01T10:29:45.217Z,2.70
2022-08-01T10:32:25.851Z,2.90
2022-08-01T10:35:19.728Z,2.20
2022-08-01T10:40:28.266Z,2.50
2022-08-01T10:43:06.194Z,2.30
2022-08-01T10:45:52.525Z,2.05
2022-08-01T10:48:44.664Z,2.10
2022-08-01T10:56:04.401Z,13.27
2022-08-01T10:58:50.921Z,13.13
2022-08-01T11:01:37.620Z,3.35
2022-08-01T11:14:02.067Z,1.88
2022-08-01T11:18:07.374Z,1.63
2022-08-01T11:21:59.001Z,1.77
2022-08-01T11:24:08.141Z,1.98
2022-08-01T11:27:23.549Z,1.55
2022-08-01T11:30:13.280Z,1.50
2022-08-01T11:33:11.203Z,1.42
2022-08-01T11:36:11.172Z,1.67
2022-08-01T11:39:13.687Z,1.30
2022-08-01T11:42:18.918Z,1.23
2022-08-01T11:45:04.872Z,1.40
2022-08-01T11:47:51.821Z,1.50
2022-08-01T11:50:38.158Z,1.60
2022-08-01T11:53:25.316Z,1.42
2022-08-01T11:56:13.002Z,1.67
2022-08-01T11:59:04.393Z,1.40
2022-08-01T12:01:50.447Z,1.60
2022-08-01T12:05:01.887Z,1.70
2022-08-01T12:07:51.805Z,1.52
2022-08-01T12:10:47.177Z,2.10
2022-08-01T12:13:43.063Z,1.80
2022-08-01T12:16:33.245Z,1.30
2022-08-01T12:19:24.315Z,1.70
2022-08-01T12:22:14.919Z,1.60
2022-08-01T12:25:14.953Z,1.63
2022-08-01T12:28:05.783Z,2.28
2022-08-01T12:30:53.083Z,1.90
2022-08-01T12:33:38.869Z,1.50
2022-08-01T12:36:31.372Z,1.35
2022-08-01T12:39:17.349Z,1.50
2022-08-01T12:47:42.087Z,1.40
2022-08-01T12:59:27.876Z,1.27
2022-08-01T13:02:13.667Z,1.73
2022-08-01T13:14:32.895Z,1.75
2022-08-01T13:18:12.582Z,1.60
2022-08-01T13:21:28.749Z,1.52
2022-08-01T13:24:29.833Z,1.77
2022-08-01T13:27:31.013Z,1.70
2022-08-01T13:30:18.122Z,1.90
2022-08-01T13:33:04.788Z,1.40
2022-08-01T13:35:52.146Z,1.70
2022-08-01T13:38:59.106Z,1.30
2022-08-01T13:41:51.338Z,1.90
2022-08-01T13:44:37.533Z,1.60
2022-08-01T13:47:31.398Z,1.95
2022-08-01T14:17:47.565Z,1.58
2022-08-01T14:20:38.236Z,1.73
2022-08-01T14:27:58.235Z,2.05
2022-08-01T14:36:32.586Z,1.55
2022-08-01T14:39:24.913Z,1.98
2022-08-01T14:42:11.803Z,1.90
2022-08-01T14:45:00.143Z,1.90
2022-08-01T14:47:47.234Z,1.75
2022-08-01T14:50:33.985Z,1.52
2022-08-01T14:57:59.155Z,7.10
2022-08-01T15:00:45.430Z,9.75
2022-08-01T15:03:32.814Z,3.00
2022-08-01T15:06:18.790Z,2.38
2022-08-01T15:09:08.163Z,2.08
2022-08-01T15:11:55.340Z,2.42
2022-08-01T15:14:51.443Z,2.13
2022-08-01T15:17:37.156Z,2.15
2022-08-01T15:20:28.157Z,5.60
2022-08-01T15:23:14.656Z,1.83
2022-08-01T15:26:00.632Z,1.55
2022-08-01T15:28:47.257Z,1.60
2022-08-01T15:31:33.645Z,2.03
2022-08-01T15:34:20.102Z,1.60
2022-08-01T15:37:07.507Z,1.80
2022-08-01T15:39:56.427Z,1.20
2022-08-01T15:42:42.972Z,1.50
2022-08-01T15:45:47.034Z,1.48
2022-08-01T15:48:39.940Z,1.42
2022-08-01T15:51:26.157Z,1.30
2022-08-01T15:54:14.721Z,1.88
2022-08-01T15:57:01.180Z,1.85
2022-08-01T15:59:48.967Z,1.80
2022-08-01T16:02:37.646Z,1.80
2022-08-01T16:05:58.660Z,1.40
2022-08-01T16:08:47.831Z,1.50
2022-08-01T16:11:34.010Z,1.90
2022-08-01T16:14:21.666Z,1.50
2022-08-01T16:17:08.191Z,1.60
2022-08-01T16:19:54.282Z,1.60
2022-08-01T16:22:40.765Z,1.75
2022-08-01T16:25:27.272Z,1.70
2022-08-01T16:28:17.635Z,1.42
2022-08-01T16:31:15.324Z,2.03
2022-08-01T16:34:13.073Z,1.98
2022-08-01T16:37:00.898Z,1.73
2022-08-01T16:39:47.534Z,1.90
2022-08-01T16:42:33.722Z,1.80
2022-08-01T16:45:21.341Z,1.55
2022-08-01T16:48:07.549Z,1.58
2022-08-01T16:50:58.446Z,2.53
2022-08-01T16:53:44.684Z,1.88
2022-08-01T16:56:30.816Z,1.60
2022-08-01T16:59:31.825Z,1.95
2022-08-01T17:02:19.828Z,2.15
2022-08-01T17:05:07.219Z,10.77
2022-08-01T17:07:54.958Z,6.47
2022-08-01T17:10:41.771Z,6.00
2022-08-01T17:13:28.058Z,31.77
2022-08-01T17:16:14.385Z,10.40
2022-08-01T17:19:00.584Z,15.85
2022-08-01T17:21:46.839Z,30.85
2022-08-01T17:24:33.393Z,4.07
2022-08-01T17:27:24.945Z,2.78
2022-08-01T17:30:13.845Z,3.00
2022-08-01T17:32:59.854Z,3.10
2022-08-01T17:35:46.155Z,2.92
2022-08-01T17:38:32.591Z,2.20
2022-08-01T17:41:18.791Z,2.60
2022-08-01T17:44:05.215Z,2.50
2022-08-01T17:46:51.175Z,2.00
2022-08-01T17:49:54.650Z,2.10
2022-08-01T17:52:46.215Z,2.00
2022-08-01T17:55:56.151Z,2.20
2022-08-01T17:58:50.700Z,2.78
2022-08-01T18:01:37.944Z,3.28
2022-08-01T18:04:35.732Z,3.20
2022-08-01T18:08:00.653Z,2.55
2022-08-01T18:10:43.040Z,3.03
2022-08-01T18:13:29.896Z,3.28
2022-08-01T18:16:17.310Z,2.75
2022-08-01T18:19:05.454Z,2.60
2022-08-01T18:21:51.868Z,3.08
2022-08-01T18:24:39.655Z,3.35
2022-08-01T18:27:25.881Z,3.90
2022-08-01T18:30:37.244Z,2.92
2022-08-01T18:33:23.932Z,3.63
2022-08-01T18:36:32.335Z,4.80
2022-08-01T18:39:29.768Z,4.30
2022-08-01T18:42:18.833Z,3.95
2022-08-01T18:45:05.429Z,4.28
2022-08-01T18:47:53.145Z,3.60
2022-08-01T18:50:39.812Z,5.07
2022-08-01T18:53:25.910Z,13.90
2022-08-01T18:56:12.330Z,6.10
2022-08-01T18:59:24.324Z,5.30
2022-08-01T19:02:12.482Z,4.30
2022-08-01T19:04:58.709Z,5.25
2022-08-01T19:08:06.486Z,4.20
2022-08-01T19:10:51.185Z,3.92
2022-08-01T19:13:38.470Z,4.78
2022-08-01T19:16:24.726Z,4.03
2022-08-01T19:19:10.701Z,4.25
2022-08-01T19:21:57.134Z,4.43
2022-08-01T19:24:43.418Z,3.88
2022-08-01T19:27:32.908Z,4.65
2022-08-01T19:30:20.183Z,5.43
2022-08-01T19:33:07.172Z,4.13
2022-08-01T19:35:53.860Z,3.78
2022-08-01T19:38:40.241Z,4.22
2022-08-01T19:41:29.023Z,3.70
2022-08-01T19:44:17.186Z,4.57
2022-08-01T19:47:05.951Z,5.80
2022-08-01T19:49:52.691Z,3.92
2022-08-01T19:52:39.401Z,3.15
2022-08-01T19:55:29.361Z,4.03
2022-08-01T19:58:26.890Z,3.92
2022-08-01T20:01:17.166Z,4.05
2022-08-01T20:04:04.784Z,4.15
2022-08-01T20:06:59.798Z,4.65
2022-08-01T20:09:54.220Z,4.00
2022-08-01T20:13:00.143Z,3.70
2022-08-01T20:16:05.353Z,3.60
2022-08-01T20:18:57.062Z,3.75
2022-08-01T20:22:02.465Z,3.90
2022-08-01T20:24:57.362Z,3.72
2022-08-01T20:27:44.678Z,3.75
2022-08-01T20:30:31.073Z,4.28
2022-08-01T20:33:18.117Z,4.45
2022-08-01T20:36:04.641Z,4.03
2022-08-01T20:39:00.934Z,3.70
2022-08-01T20:41:52.020Z,4.53
2022-08-01T20:44:52.333Z,3.33
2022-08-01T20:47:39.933Z,4.28
2022-08-01T20:50:53.832Z,3.83
2022-08-01T20:53:42.639Z,4.35
2022-08-01T20:56:39.371Z,4.68
2022-08-01T20:59:55.610Z,4.18
2022-08-01T21:03:23.700Z,4.28
2022-08-01T21:06:26.731Z,4.40
2022-08-01T21:09:14.724Z,4.10
2022-08-01T21:12:07.472Z,5.10
2022-08-01T21:15:02.014Z,4.50
2022-08-01T21:17:58.290Z,4.53
2022-08-01T21:20:47.517Z,4.20
2022-08-01T21:23:46.895Z,3.58
2022-08-01T21:26:40.774Z,4.10
2022-08-01T21:29:33.322Z,4.53
2022-08-01T21:32:21.873Z,4.75
2022-08-01T21:35:16.525Z,5.45
2022-08-01T21:38:11.368Z,4.60
2022-08-01T21:40:59.473Z,5.28
2022-08-01T21:43:47.689Z,5.63
2022-08-01T21:46:34.219Z,4.43
2022-08-01T21:49:21.822Z,4.10
2022-08-01T21:52:21.482Z,4.55
2022-08-01T21:55:22.947Z,4.25
2022-08-01T21:58:35.752Z,3.88
2022-08-01T22:01:52.654Z,4.18
2022-08-01T22:04:49.386Z,4.15
2022-08-01T22:07:42.535Z,3.80
2022-08-01T22:10:29.356Z,3.95
2022-08-01T22:13:15.651Z,3.90
2022-08-01T22:16:03.621Z,3.42
2022-08-01T22:18:49.846Z,3.50
2022-08-01T22:21:38.854Z,3.70
2022-08-01T22:24:25.156Z,4.72
2022-08-01T22:30:34.904Z,4.95
2022-08-01T22:33:21.448Z,4.85
2022-08-01T22:36:07.702Z,4.15
2022-08-01T22:39:15.942Z,3.90
2022-08-01T22:42:09.884Z,4.78
2022-08-01T22:45:01.730Z,4.75
2022-08-01T22:47:58.026Z,4.50
2022-08-01T22:50:56.845Z,4.40
2022-08-01T22:54:09.982Z,4.28
2022-08-01T22:57:01.681Z,4.10
2022-08-01T23:00:06.899Z,4.10
2022-08-01T23:03:05.834Z,4.07
2022-08-01T23:06:14.857Z,4.20
2022-08-01T23:09:02.845Z,4.60
2022-08-01T23:11:49.223Z,4.90
2022-08-01T23:14:35.403Z,4.47
2022-08-01T23:17:26.725Z,4.20
2022-08-01T23:20:15.397Z,3.80
2022-08-01T23:23:02.543Z,4.13
2022-08-01T23:25:49.353Z,3.90
2022-08-01T23:28:36.527Z,3.80
2022-08-01T23:31:26.983Z,3.50
2022-08-01T23:34:29.481Z,3.53
2022-08-01T23:37:16.087Z,3.22
2022-08-01T23:40:04.198Z,3.55
2022-08-01T23:42:50.253Z,3.72
2022-08-01T23:46:02.038Z,3.60
2022-08-01T23:48:43.350Z,3.60
2022-08-01T23:51:29.519Z,3.83
2022-08-01T23:54:15.552Z,3.58
2022-08-01T23:57:02.479Z,5.03
2022-08-01T23:59:52.825Z,3.92
